createdAt,value
2018-08-12T00:00:02.638Z,98311.98
2018-08-12T00:00:34.237Z,98333.40
2018-08-12T00:01:05.824Z,98340.19
2018-08-12T00:01:37.407Z,98334.59
2018-08-12T00:02:09.010Z,98338.80
2018-08-12T00:02:40.605Z,98337.03
2018-08-12T00:03:12.229Z,98329.75
2018-08-12T00:03:43.815Z,98335.27
2018-08-12T00:04:15.441Z,98332.69
2018-08-12T00:04:47.058Z,98330.95
2018-08-12T00:05:18.697Z,98330.95
2018-08-12T00:05:50.311Z,98334.32
2018-08-12T00:06:21.891Z,98329.13
2018-08-12T00:06:53.497Z,98330.41
2018-08-12T00:07:25.079Z,98329.19
2018-08-12T00:07:56.677Z,98332.09
2018-08-12T00:08:28.309Z,98326.53
2018-08-12T00:08:59.900Z,98325.69
2018-08-12T00:09:31.491Z,98335.02
2018-08-12T00:10:03.064Z,98337.16
2018-08-12T00:10:34.661Z,98331.17
2018-08-12T00:11:06.266Z,98328.58
2018-08-12T00:11:37.849Z,98330.22
2018-08-12T00:12:09.449Z,98329.34
2018-08-12T00:12:41.065Z,98323.74
2018-08-12T00:13:12.655Z,98327.55
2018-08-12T00:13:44.239Z,98327.14
2018-08-12T00:14:15.823Z,98331.42
2018-08-12T00:14:47.421Z,98328.00
2018-08-12T00:15:19.102Z,98328.86
2018-08-12T00:15:50.619Z,98327.17
2018-08-12T00:16:22.204Z,98324.16
2018-08-12T00:16:53.801Z,98328.44
2018-08-12T00:17:25.432Z,98325.88
2018-08-12T00:17:57.033Z,98320.36
2018-08-12T00:18:28.677Z,98325.88
2018-08-12T00:19:00.264Z,98323.79
2018-08-12T00:19:31.848Z,98324.60
2018-08-12T00:20:03.445Z,98330.16
2018-08-12T00:20:35.042Z,98323.32
2018-08-12T00:21:06.674Z,98327.59
2018-08-12T00:21:38.259Z,98322.08
2018-08-12T00:22:09.860Z,98326.79
2018-08-12T00:22:41.446Z,98325.51
2018-08-12T00:23:13.031Z,98322.50
2018-08-12T00:23:44.625Z,98319.59
2018-08-12T00:24:16.215Z,98325.94
2018-08-12T00:24:47.814Z,98323.38
2018-08-12T00:25:19.445Z,98325.95
2018-08-12T00:25:51.188Z,98326.38
2018-08-12T00:26:22.786Z,98320.83
2018-08-12T00:26:54.381Z,98319.55
2018-08-12T00:27:25.976Z,98322.11
2018-08-12T00:27:57.572Z,98325.14
2018-08-12T00:28:29.186Z,98320.83
2018-08-12T00:29:00.775Z,98324.68
2018-08-12T00:29:32.373Z,98317.45
2018-08-12T00:30:03.971Z,98316.97
2018-08-12T00:30:35.556Z,98320.45
2018-08-12T00:31:07.206Z,98317.90
2018-08-12T00:31:38.789Z,98322.59
2018-08-12T00:32:10.385Z,98319.59
2018-08-12T00:32:41.957Z,98313.98
2018-08-12T00:33:13.542Z,98320.02
2018-08-12T00:33:45.129Z,98322.58
2018-08-12T00:34:16.715Z,98320.02
2018-08-12T00:34:48.289Z,98314.45
2018-08-12T00:35:19.875Z,98318.30
2018-08-12T00:35:51.459Z,98314.48
2018-08-12T00:36:23.108Z,98317.03
2018-08-12T00:36:54.705Z,98316.63
2018-08-12T00:37:26.297Z,98316.59
2018-08-12T00:37:57.897Z,98315.31
2018-08-12T00:38:29.556Z,98318.74
2018-08-12T00:39:01.159Z,98315.31
2018-08-12T00:39:32.750Z,98317.03
2018-08-12T00:40:04.345Z,98316.61
2018-08-12T00:40:35.931Z,98318.32
2018-08-12T00:41:07.527Z,98311.91
2018-08-12T00:41:39.177Z,98312.75
2018-08-12T00:42:10.764Z,98315.77
2018-08-12T00:42:42.361Z,98317.05
2018-08-12T00:43:13.959Z,98318.74
2018-08-12T00:43:45.547Z,98313.19
2018-08-12T00:44:17.635Z,98313.62
2018-08-12T00:44:49.229Z,98315.77
2018-08-12T00:45:20.814Z,98313.62
2018-08-12T00:45:52.389Z,98312.36
2018-08-12T00:46:23.989Z,98316.27
2018-08-12T00:46:55.574Z,98317.90
2018-08-12T00:47:27.173Z,98320.05
2018-08-12T00:47:58.749Z,98329.02
2018-08-12T00:48:30.355Z,98318.32
2018-08-12T00:49:01.961Z,98323.86
2018-08-12T00:49:33.556Z,98325.14
2018-08-12T00:50:05.143Z,98324.25
2018-08-12T00:50:36.750Z,98317.82
2018-08-12T00:51:08.354Z,98321.67
2018-08-12T00:51:39.954Z,98316.97
2018-08-12T00:52:11.581Z,98318.24
2018-08-12T00:52:43.166Z,98320.39
2018-08-12T00:53:14.785Z,98320.80
2018-08-12T00:53:46.371Z,98317.80
2018-08-12T00:54:17.965Z,98325.02
2018-08-12T00:54:49.581Z,98319.94
2018-08-12T00:55:21.175Z,98316.09
2018-08-12T00:55:52.773Z,98316.91
2018-08-12T00:56:24.359Z,98313.95
2018-08-12T00:56:55.962Z,98316.86
2018-08-12T00:57:27.609Z,98324.08
2018-08-12T00:57:59.196Z,98317.63
2018-08-12T00:58:30.793Z,98317.20
2018-08-12T00:59:02.376Z,98318.92
2018-08-12T00:59:33.968Z,98315.52
2018-08-12T01:00:05.559Z,98313.80
2018-08-12T01:00:37.166Z,98313.88
2018-08-12T01:01:08.755Z,98315.09
2018-08-12T01:01:40.340Z,98315.10
2018-08-12T01:02:11.938Z,98315.66
2018-08-12T01:02:43.529Z,98310.48
2018-08-12T01:03:15.115Z,98315.60
2018-08-12T01:03:46.709Z,98310.95
2018-08-12T01:04:18.325Z,98315.22
2018-08-12T01:04:49.929Z,98314.81
2018-08-12T01:05:21.533Z,98316.54
2018-08-12T01:05:53.137Z,98321.67
2018-08-12T01:06:24.722Z,98315.73
2018-08-12T01:06:56.347Z,98317.84
2018-08-12T01:07:27.941Z,98315.77
2018-08-12T01:07:59.593Z,98320.47
2018-08-12T01:08:31.173Z,98317.03
2018-08-12T01:09:02.768Z,98319.18
2018-08-12T01:09:34.341Z,98320.05
2018-08-12T01:10:05.937Z,98323.45
2018-08-12T01:10:37.555Z,98320.05
2018-08-12T01:11:09.138Z,98318.77
2018-08-12T01:11:40.718Z,98322.25
2018-08-12T01:12:12.299Z,98315.02
2018-08-12T01:12:43.897Z,98318.34
2018-08-12T01:13:15.533Z,98319.68
2018-08-12T01:13:47.171Z,98320.11
2018-08-12T01:14:18.773Z,98317.98
2018-08-12T01:14:50.369Z,98317.56
2018-08-12T01:15:21.977Z,98319.69
2018-08-12T01:15:53.567Z,98318.83
2018-08-12T01:16:25.166Z,98319.23
2018-08-12T01:16:56.751Z,98318.39
2018-08-12T01:17:28.498Z,98321.33
2018-08-12T01:18:00.088Z,98319.59
2018-08-12T01:18:31.675Z,98325.95
2018-08-12T01:19:03.260Z,98323.38
2018-08-12T01:19:34.843Z,98320.81
2018-08-12T01:20:06.423Z,98323.80
2018-08-12T01:20:38.030Z,98324.66
2018-08-12T01:21:09.629Z,98320.47
2018-08-12T01:21:41.216Z,98319.12
2018-08-12T01:22:12.803Z,98325.59
2018-08-12T01:22:44.403Z,98322.17
2018-08-12T01:23:16.002Z,98319.18
2018-08-12T01:23:47.593Z,98323.89
2018-08-12T01:24:19.225Z,98312.77
2018-08-12T01:24:50.793Z,98315.33
2018-08-12T01:25:22.388Z,98316.11
2018-08-12T01:25:53.984Z,98319.95
2018-08-12T01:26:25.585Z,98317.81
2018-08-12T01:26:57.205Z,98316.95
2018-08-12T01:27:28.794Z,98318.23
2018-08-12T01:28:00.430Z,98317.33
2018-08-12T01:28:32.058Z,98313.82
2018-08-12T01:29:03.643Z,98315.84
2018-08-12T01:29:35.273Z,98316.52
2018-08-12T01:30:06.869Z,98322.25
2018-08-12T01:30:38.459Z,98313.89
2018-08-12T01:31:10.066Z,98313.58
2018-08-12T01:31:41.642Z,98318.86
2018-08-12T01:32:13.241Z,98319.98
2018-08-12T01:32:44.869Z,98322.86
2018-08-12T01:33:16.465Z,98322.72
2018-08-12T01:33:48.060Z,98322.73
2018-08-12T01:34:19.662Z,98321.42
2018-08-12T01:34:51.301Z,98321.77
2018-08-12T01:35:22.887Z,98317.79
2018-08-12T01:35:54.562Z,98316.36
2018-08-12T01:36:26.082Z,98320.77
2018-08-12T01:36:57.667Z,98327.73
2018-08-12T01:37:29.255Z,98313.34
2018-08-12T01:38:00.875Z,98322.27
2018-08-12T01:38:32.459Z,98323.61
2018-08-12T01:39:04.047Z,98317.69
2018-08-12T01:39:35.631Z,98322.08
2018-08-12T01:40:07.218Z,98311.91
2018-08-12T01:40:38.790Z,98317.91
2018-08-12T01:41:10.394Z,98314.56
2018-08-12T01:41:42.034Z,98315.48
2018-08-12T01:42:13.638Z,98318.47
2018-08-12T01:42:45.269Z,98313.83
2018-08-12T01:43:16.861Z,98318.58
2018-08-12T01:43:48.462Z,98318.60
2018-08-12T01:44:20.066Z,98315.23
2018-08-12T01:44:51.669Z,98314.33
2018-08-12T01:45:23.247Z,98307.56
2018-08-12T01:45:54.841Z,98305.48
2018-08-12T01:46:26.444Z,98313.20
2018-08-12T01:46:58.036Z,98309.00
2018-08-12T01:47:29.629Z,98301.44
2018-08-12T01:48:01.215Z,98307.35
2018-08-12T01:48:32.803Z,98305.09
2018-08-12T01:49:04.387Z,98307.18
2018-08-12T01:49:35.985Z,98308.41
2018-08-12T01:50:07.577Z,98304.94
2018-08-12T01:50:39.193Z,98303.16
2018-08-12T01:51:10.791Z,98306.63
2018-08-12T01:51:42.375Z,98305.42
2018-08-12T01:52:13.945Z,98310.11
2018-08-12T01:52:45.558Z,98310.19
2018-08-12T01:53:17.158Z,98311.87
2018-08-12T01:53:48.812Z,98305.48
2018-08-12T01:54:20.413Z,98302.93
2018-08-12T01:54:52.009Z,98306.77
2018-08-12T01:55:23.652Z,98309.75
2018-08-12T01:55:55.239Z,98307.66
2018-08-12T01:56:26.837Z,98305.89
2018-08-12T01:56:58.426Z,98309.85
2018-08-12T01:57:30.012Z,98303.51
2018-08-12T01:58:01.607Z,98297.68
2018-08-12T01:58:33.191Z,98304.08
2018-08-12T01:59:04.779Z,98300.85
2018-08-12T01:59:36.354Z,98302.20
2018-08-12T02:00:07.943Z,98306.22
2018-08-12T02:00:39.593Z,98311.79
2018-08-12T02:01:11.198Z,98293.92
2018-08-12T02:01:42.799Z,98305.44
2018-08-12T02:02:14.379Z,98297.84
2018-08-12T02:02:45.978Z,98303.80
2018-08-12T02:03:17.564Z,98302.95
2018-08-12T02:03:49.161Z,98299.22
2018-08-12T02:04:20.765Z,98300.20
2018-08-12T02:04:52.365Z,98295.15
2018-08-12T02:05:23.970Z,98304.59
2018-08-12T02:05:55.573Z,98303.30
2018-08-12T02:06:27.189Z,98304.17
2018-08-12T02:06:58.774Z,98303.79
2018-08-12T02:07:30.363Z,98298.69
2018-08-12T02:08:01.961Z,98305.56
2018-08-12T02:08:33.541Z,98302.99
2018-08-12T02:09:05.163Z,98305.52
2018-08-12T02:09:36.769Z,98302.94
2018-08-12T02:10:08.341Z,98300.80
2018-08-12T02:10:39.923Z,98299.11
2018-08-12T02:11:11.503Z,98298.73
2018-08-12T02:11:43.132Z,98293.67
2018-08-12T02:12:14.720Z,98303.02
2018-08-12T02:12:46.337Z,98295.45
2018-08-12T02:13:17.964Z,98300.08
2018-08-12T02:13:49.547Z,98305.14
2018-08-12T02:14:21.148Z,98298.75
2018-08-12T02:14:52.745Z,98304.28
2018-08-12T02:15:24.349Z,98298.26
2018-08-12T02:15:55.935Z,98303.01
2018-08-12T02:16:27.528Z,98297.11
2018-08-12T02:16:59.155Z,98296.30
2018-08-12T02:17:30.740Z,98298.44
2018-08-12T02:18:02.313Z,98298.42
2018-08-12T02:18:33.909Z,98299.28
2018-08-12T02:19:05.499Z,98298.02
2018-08-12T02:19:37.073Z,98294.66
2018-08-12T02:20:08.689Z,98296.78
2018-08-12T02:20:40.289Z,98296.00
2018-08-12T02:21:11.905Z,98294.28
2018-08-12T02:21:43.560Z,98296.84
2018-08-12T02:22:15.196Z,98297.70
2018-08-12T02:22:46.796Z,98297.69
2018-08-12T02:23:18.387Z,98295.16
2018-08-12T02:23:49.972Z,98296.92
2018-08-12T02:24:21.563Z,98297.70
2018-08-12T02:24:53.157Z,98287.91
2018-08-12T02:25:25.483Z,98296.73
2018-08-12T02:25:57.077Z,98292.05
2018-08-12T02:26:28.663Z,98295.50
2018-08-12T02:27:00.247Z,98295.03
2018-08-12T02:27:31.889Z,98289.16
2018-08-12T02:28:03.475Z,98288.68
2018-08-12T02:28:35.059Z,98299.77
2018-08-12T02:29:06.666Z,98293.00
2018-08-12T02:29:38.255Z,98300.57
2018-08-12T02:30:09.844Z,98296.36
2018-08-12T02:30:41.443Z,98300.50
2018-08-12T02:31:13.043Z,98297.15
2018-08-12T02:31:44.627Z,98298.38
2018-08-12T02:32:16.221Z,98297.99
2018-08-12T02:32:47.826Z,98299.17
2018-08-12T02:33:19.410Z,98292.39
2018-08-12T02:33:50.991Z,98295.33
2018-08-12T02:34:22.610Z,98296.55
2018-08-12T02:34:54.199Z,98296.12
2018-08-12T02:35:25.796Z,98297.41
2018-08-12T02:35:57.433Z,98297.04
2018-08-12T02:36:29.022Z,98291.06
2018-08-12T02:37:00.594Z,98290.63
2018-08-12T02:37:32.180Z,98292.78
2018-08-12T02:38:03.763Z,98293.20
2018-08-12T02:38:35.358Z,98286.02
2018-08-12T02:39:06.947Z,98290.34
2018-08-12T02:39:38.522Z,98288.20
2018-08-12T02:40:10.122Z,98292.48
2018-08-12T02:40:41.731Z,98289.06
2018-08-12T02:41:13.366Z,98294.59
2018-08-12T02:41:44.952Z,98293.76
2018-08-12T02:42:16.540Z,98293.31
2018-08-12T02:42:49.185Z,98295.08
2018-08-12T02:43:20.780Z,98290.88
2018-08-12T02:43:52.358Z,98291.72
2018-08-12T02:44:23.954Z,98290.44
2018-08-12T02:44:55.557Z,98291.20
2018-08-12T02:45:27.143Z,98298.02
2018-08-12T02:45:58.728Z,98286.55
2018-08-12T02:46:30.370Z,98289.06
2018-08-12T02:47:01.959Z,98291.23
2018-08-12T02:47:33.566Z,98292.09
2018-08-12T02:48:05.165Z,98290.94
2018-08-12T02:48:36.765Z,98291.36
2018-08-12T02:49:08.365Z,98286.25
2018-08-12T02:49:39.993Z,98290.04
2018-08-12T02:50:11.582Z,98284.91
2018-08-12T02:50:43.167Z,98284.92
2018-08-12T02:51:14.763Z,98289.18
2018-08-12T02:51:46.351Z,98292.69
2018-08-12T02:52:17.938Z,98288.45
2018-08-12T02:52:49.592Z,98286.44
2018-08-12T02:53:21.188Z,98285.13
2018-08-12T02:53:52.805Z,98288.53
2018-08-12T02:54:24.387Z,98288.63
2018-08-12T02:54:55.976Z,98291.20
2018-08-12T02:55:27.571Z,98283.15
2018-08-12T02:55:59.190Z,98284.92
2018-08-12T02:56:30.779Z,98289.70
2018-08-12T02:57:02.367Z,98288.44
2018-08-12T02:57:33.971Z,98288.02
2018-08-12T02:58:05.546Z,98289.82
2018-08-12T02:58:37.139Z,98285.19
2018-08-12T02:59:08.733Z,98284.77
2018-08-12T02:59:40.319Z,98286.95
2018-08-12T03:00:11.903Z,98286.95
2018-08-12T03:00:43.506Z,98286.09
2018-08-12T03:01:15.279Z,98280.63
2018-08-12T03:01:46.873Z,98283.61
2018-08-12T03:02:18.460Z,98288.28
2018-08-12T03:02:50.072Z,98282.33
2018-08-12T03:03:21.658Z,98286.97
2018-08-12T03:03:53.251Z,98284.77
2018-08-12T03:04:24.847Z,98285.09
2018-08-12T03:04:56.447Z,98283.33
2018-08-12T03:05:28.019Z,98279.44
2018-08-12T03:05:59.620Z,98281.92
2018-08-12T03:06:31.246Z,98284.42
2018-08-12T03:07:02.835Z,98279.37
2018-08-12T03:07:34.429Z,98281.45
2018-08-12T03:08:06.015Z,98277.98
2018-08-12T03:08:37.618Z,98280.11
2018-08-12T03:09:09.245Z,98278.42
2018-08-12T03:09:40.822Z,98278.88
2018-08-12T03:10:12.402Z,98278.40
2018-08-12T03:10:44.034Z,98273.54
2018-08-12T03:11:15.635Z,98283.25
2018-08-12T03:11:47.223Z,98278.47
2018-08-12T03:12:18.806Z,98279.80
2018-08-12T03:12:50.411Z,98279.86
2018-08-12T03:13:21.989Z,98282.05
2018-08-12T03:13:53.626Z,98276.94
2018-08-12T03:14:25.229Z,98277.78
2018-08-12T03:14:56.825Z,98276.08
2018-08-12T03:15:28.426Z,98279.95
2018-08-12T03:16:00.031Z,98275.25
2018-08-12T03:16:31.660Z,98276.94
2018-08-12T03:17:03.251Z,98277.78
2018-08-12T03:17:35.323Z,98278.63
2018-08-12T03:18:06.893Z,98273.90
2018-08-12T03:18:38.489Z,98274.36
2018-08-12T03:19:10.074Z,98268.86
2018-08-12T03:19:41.721Z,98267.64
2018-08-12T03:20:13.330Z,98265.98
2018-08-12T03:20:45.935Z,98267.70
2018-08-12T03:21:17.605Z,98261.78
2018-08-12T03:21:49.204Z,98264.34
2018-08-12T03:22:20.826Z,98259.72
2018-08-12T03:22:52.401Z,98267.70
2018-08-12T03:23:23.996Z,98259.12
2018-08-12T03:23:55.582Z,98264.17
2018-08-12T03:24:27.172Z,98265.92
2018-08-12T03:24:58.803Z,98265.63
2018-08-12T03:25:30.383Z,98260.15
2018-08-12T03:26:01.964Z,98264.77
2018-08-12T03:26:33.537Z,98266.90
2018-08-12T03:27:05.163Z,98262.22
2018-08-12T03:27:36.765Z,98265.63
2018-08-12T03:28:08.347Z,98262.59
2018-08-12T03:28:39.931Z,98260.50
2018-08-12T03:29:11.506Z,98267.39
2018-08-12T03:29:43.091Z,98258.08
2018-08-12T03:30:14.765Z,98257.69
2018-08-12T03:30:46.312Z,98257.09
2018-08-12T03:31:17.952Z,98260.02
2018-08-12T03:31:49.555Z,98260.39
2018-08-12T03:32:21.149Z,98259.10
2018-08-12T03:32:52.749Z,98257.53
2018-08-12T03:33:24.339Z,98256.78
2018-08-12T03:33:55.923Z,98252.52
2018-08-12T03:34:27.586Z,98256.84
2018-08-12T03:34:59.208Z,98258.08
2018-08-12T03:35:30.805Z,98256.79
2018-08-12T03:36:02.391Z,98254.66
2018-08-12T03:36:35.702Z,98259.35
2018-08-12T03:37:07.287Z,98257.28
2018-08-12T03:37:38.872Z,98258.20
2018-08-12T03:38:10.454Z,98262.03
2018-08-12T03:38:42.048Z,98260.25
2018-08-12T03:39:13.629Z,98260.38
2018-08-12T03:39:45.277Z,98256.64
2018-08-12T03:40:16.849Z,98258.89
2018-08-12T03:40:48.464Z,98254.63
2018-08-12T03:41:20.054Z,98259.20
2018-08-12T03:41:51.643Z,98262.52
2018-08-12T03:42:23.228Z,98259.04
2018-08-12T03:42:54.829Z,98258.23
2018-08-12T03:43:26.419Z,98260.33
2018-08-12T03:43:58.051Z,98258.62
2018-08-12T03:44:29.661Z,98258.50
2018-08-12T03:45:01.248Z,98256.36
2018-08-12T03:45:32.835Z,98257.59
2018-08-12T03:46:04.442Z,98255.50
2018-08-12T03:46:36.036Z,98252.09
2018-08-12T03:47:07.628Z,98258.08
2018-08-12T03:47:39.225Z,98256.09
2018-08-12T03:48:10.811Z,98252.83
2018-08-12T03:48:42.408Z,98261.92
2018-08-12T03:49:14.035Z,98264.53
2018-08-12T03:49:45.651Z,98259.05
2018-08-12T03:50:17.235Z,98259.54
2018-08-12T03:50:48.833Z,98265.09
2018-08-12T03:51:20.409Z,98260.87
2018-08-12T03:51:51.993Z,98259.59
2018-08-12T03:52:23.563Z,98260.88
2018-08-12T03:52:55.158Z,98263.01
2018-08-12T03:53:26.755Z,98266.84
2018-08-12T03:53:58.347Z,98261.41
2018-08-12T03:54:29.949Z,98261.78
2018-08-12T03:55:01.541Z,98263.10
2018-08-12T03:55:33.184Z,98267.80
2018-08-12T03:56:04.772Z,98266.52
2018-08-12T03:56:36.369Z,98265.72
2018-08-12T03:57:07.969Z,98259.75
2018-08-12T03:57:39.554Z,98269.97
2018-08-12T03:58:11.153Z,98267.80
2018-08-12T03:58:42.763Z,98269.92
2018-08-12T03:59:14.381Z,98271.21
2018-08-12T03:59:45.975Z,98271.25
2018-08-12T04:00:17.600Z,98267.04
2018-08-12T04:00:49.205Z,98270.45
2018-08-12T04:01:20.791Z,98267.09
2018-08-12T04:01:52.423Z,98266.73
2018-08-12T04:02:24.046Z,98268.44
2018-08-12T04:02:55.630Z,98266.30
2018-08-12T04:03:27.225Z,98266.25
2018-08-12T04:03:58.815Z,98264.12
2018-08-12T04:04:30.399Z,98264.88
2018-08-12T04:05:02.002Z,98267.80
2018-08-12T04:05:33.587Z,98260.50
2018-08-12T04:06:05.175Z,98258.74
2018-08-12T04:06:36.772Z,98262.53
2018-08-12T04:07:08.401Z,98259.16
2018-08-12T04:07:39.997Z,98263.42
2018-08-12T04:08:11.605Z,98267.69
2018-08-12T04:08:43.195Z,98258.78
2018-08-12T04:09:14.775Z,98264.33
2018-08-12T04:09:46.363Z,98262.67
2018-08-12T04:10:17.991Z,98257.99
2018-08-12T04:10:49.565Z,98260.06
2018-08-12T04:11:21.142Z,98262.20
2018-08-12T04:11:52.732Z,98264.81
2018-08-12T04:12:24.309Z,98263.16
2018-08-12T04:12:55.899Z,98269.17
2018-08-12T04:13:27.496Z,98262.84
2018-08-12T04:13:59.082Z,98263.23
2018-08-12T04:14:30.671Z,98262.78
2018-08-12T04:15:02.298Z,98264.02
2018-08-12T04:15:33.910Z,98270.41
2018-08-12T04:16:05.485Z,98260.61
2018-08-12T04:16:37.081Z,98266.58
2018-08-12T04:17:08.695Z,98262.78
2018-08-12T04:17:40.294Z,98241.72
2018-08-12T04:18:11.899Z,98266.15
2018-08-12T04:18:43.469Z,98266.15
2018-08-12T04:19:15.063Z,98268.69
2018-08-12T04:19:46.702Z,98268.31
2018-08-12T04:20:18.279Z,98267.05
2018-08-12T04:20:49.867Z,98264.97
2018-08-12T04:21:21.452Z,98265.45
2018-08-12T04:21:53.043Z,98265.98
2018-08-12T04:22:24.643Z,98266.36
2018-08-12T04:22:56.245Z,98268.54
2018-08-12T04:23:27.845Z,98270.29
2018-08-12T04:23:59.445Z,98257.98
2018-08-12T04:24:31.084Z,98263.91
2018-08-12T04:25:02.685Z,98258.80
2018-08-12T04:25:34.265Z,98262.69
2018-08-12T04:26:05.851Z,98266.05
2018-08-12T04:26:37.435Z,98260.08
2018-08-12T04:27:09.024Z,98263.91
2018-08-12T04:27:40.639Z,98266.45
2018-08-12T04:28:12.252Z,98266.89
2018-08-12T04:28:43.835Z,98263.95
2018-08-12T04:29:15.418Z,98262.21
2018-08-12T04:29:47.003Z,98263.05
2018-08-12T04:30:18.596Z,98260.08
2018-08-12T04:30:50.189Z,98253.70
2018-08-12T04:31:21.775Z,98263.53
2018-08-12T04:31:53.363Z,98255.86
2018-08-12T04:32:24.986Z,98258.42
2018-08-12T04:32:56.581Z,98258.84
2018-08-12T04:33:28.158Z,98262.67
2018-08-12T04:33:59.747Z,98258.84
2018-08-12T04:34:31.331Z,98260.55
2018-08-12T04:35:02.915Z,98264.81
2018-08-12T04:35:34.495Z,98261.88
2018-08-12T04:36:06.080Z,98261.03
2018-08-12T04:36:37.711Z,98262.31
2018-08-12T04:37:09.310Z,98263.16
2018-08-12T04:37:40.889Z,98261.89
2018-08-12T04:38:12.470Z,98263.16
2018-08-12T04:38:44.065Z,98258.05
2018-08-12T04:39:15.683Z,98263.16
2018-08-12T04:39:47.298Z,98261.08
2018-08-12T04:40:18.897Z,98259.38
2018-08-12T04:40:50.470Z,98257.25
2018-08-12T04:41:22.095Z,98262.78
2018-08-12T04:41:53.685Z,98261.48
2018-08-12T04:42:25.271Z,98260.65
2018-08-12T04:42:56.859Z,98258.09
2018-08-12T04:43:28.457Z,98256.82
2018-08-12T04:44:00.083Z,98262.77
2018-08-12T04:44:31.667Z,98268.27
2018-08-12T04:45:03.238Z,98255.11
2018-08-12T04:45:34.825Z,98259.75
2018-08-12T04:46:06.459Z,98258.86
2018-08-12T04:46:38.045Z,98257.52
2018-08-12T04:47:09.680Z,98255.39
2018-08-12T04:47:41.283Z,98252.80
2018-08-12T04:48:12.902Z,98259.59
2018-08-12T04:48:44.497Z,98254.44
2018-08-12T04:49:16.114Z,98261.24
2018-08-12T04:49:47.692Z,98254.38
2018-08-12T04:50:19.291Z,98259.91
2018-08-12T04:50:50.879Z,98256.89
2018-08-12T04:51:22.467Z,98252.69
2018-08-12T04:51:54.065Z,98255.33
2018-08-12T04:52:25.707Z,98257.04
2018-08-12T04:52:57.309Z,98255.81
2018-08-12T04:53:28.905Z,98252.37
2018-08-12T04:54:00.481Z,98259.22
2018-08-12T04:54:32.067Z,98253.69
2018-08-12T04:55:03.656Z,98258.70
2018-08-12T04:55:35.239Z,98254.55
2018-08-12T04:56:06.842Z,98260.08
2018-08-12T04:56:38.428Z,98257.20
2018-08-12T04:57:10.030Z,98261.45
2018-08-12T04:57:41.654Z,98254.21
2018-08-12T04:58:13.225Z,98253.75
2018-08-12T04:58:44.825Z,98260.60
2018-08-12T04:59:16.427Z,98254.17
2018-08-12T04:59:48.001Z,98253.31
2018-08-12T05:00:19.587Z,98251.28
2018-08-12T05:00:51.169Z,98257.63
2018-08-12T05:01:22.765Z,98255.12
2018-08-12T05:01:54.369Z,98255.98
2018-08-12T05:02:25.972Z,98250.45
2018-08-12T05:02:57.603Z,98250.56
2018-08-12T05:03:29.187Z,98255.20
2018-08-12T05:04:00.761Z,98256.52
2018-08-12T05:04:32.333Z,98253.92
2018-08-12T05:05:03.970Z,98250.98
2018-08-12T05:05:35.549Z,98250.55
2018-08-12T05:06:07.117Z,98248.80
2018-08-12T05:06:38.702Z,98247.05
2018-08-12T05:07:10.324Z,98252.14
2018-08-12T05:07:41.930Z,98249.53
2018-08-12T05:08:13.514Z,98245.33
2018-08-12T05:08:45.099Z,98253.39
2018-08-12T05:09:16.683Z,98255.14
2018-08-12T05:09:48.271Z,98254.77
2018-08-12T05:10:19.885Z,98255.63
2018-08-12T05:10:51.511Z,98257.33
2018-08-12T05:11:23.144Z,98250.03
2018-08-12T05:11:54.731Z,98256.39
2018-08-12T05:12:26.327Z,98249.96
2018-08-12T05:12:57.901Z,98246.98
2018-08-12T05:13:29.491Z,98243.10
2018-08-12T05:14:01.075Z,98251.98
2018-08-12T05:14:32.660Z,98251.98
2018-08-12T05:15:04.262Z,98247.30
2018-08-12T05:15:35.841Z,98251.89
2018-08-12T05:16:07.469Z,98244.22
2018-08-12T05:16:39.054Z,98242.77
2018-08-12T05:17:10.633Z,98246.07
2018-08-12T05:17:42.238Z,98249.63
2018-08-12T05:18:13.823Z,98246.46
2018-08-12T05:18:45.437Z,98251.19
2018-08-12T05:19:17.023Z,98249.78
2018-08-12T05:19:48.617Z,98247.05
2018-08-12T05:20:20.203Z,98252.98
2018-08-12T05:20:51.791Z,98249.67
2018-08-12T05:21:23.380Z,98246.74
2018-08-12T05:21:54.950Z,98244.17
2018-08-12T05:22:26.573Z,98244.66
2018-08-12T05:22:58.173Z,98245.94
2018-08-12T05:23:29.774Z,98239.59
2018-08-12T05:24:01.363Z,98237.61
2018-08-12T05:24:32.960Z,98238.15
2018-08-12T05:25:04.541Z,98241.28
2018-08-12T05:25:36.123Z,98234.67
2018-08-12T05:26:07.717Z,98235.72
2018-08-12T05:26:39.294Z,98237.73
2018-08-12T05:27:10.894Z,98232.00
2018-08-12T05:27:42.520Z,98235.25
2018-08-12T05:28:14.117Z,98231.31
2018-08-12T05:28:45.769Z,98234.19
2018-08-12T05:29:17.408Z,98235.39
2018-08-12T05:29:49.017Z,98230.16
2018-08-12T05:30:20.621Z,98232.23
2018-08-12T05:30:52.205Z,98230.03
2018-08-12T05:31:23.801Z,98229.11
2018-08-12T05:31:55.388Z,98229.48
2018-08-12T05:32:26.985Z,98229.42
2018-08-12T05:32:58.561Z,98232.39
2018-08-12T05:33:30.154Z,98231.06
2018-08-12T05:34:01.725Z,98227.22
2018-08-12T05:34:33.351Z,98226.35
2018-08-12T05:35:04.949Z,98234.88
2018-08-12T05:35:36.539Z,98221.67
2018-08-12T05:36:08.155Z,98228.02
2018-08-12T05:36:39.733Z,98228.02
2018-08-12T05:37:11.325Z,98223.69
2018-08-12T05:37:42.920Z,98227.94
2018-08-12T05:38:14.526Z,98228.36
2018-08-12T05:38:46.115Z,98236.04
2018-08-12T05:39:17.713Z,98225.80
2018-08-12T05:39:49.328Z,98226.25
2018-08-12T05:40:20.911Z,98223.69
2018-08-12T05:40:52.495Z,98224.54
2018-08-12T05:41:24.080Z,98222.39
2018-08-12T05:41:55.676Z,98226.59
2018-08-12T05:42:27.263Z,98224.83
2018-08-12T05:42:58.862Z,98224.77
2018-08-12T05:43:30.451Z,98222.63
2018-08-12T05:44:02.046Z,98222.61
2018-08-12T05:44:33.685Z,98220.01
2018-08-12T05:45:05.280Z,98225.54
2018-08-12T05:45:36.882Z,98222.12
2018-08-12T05:46:08.471Z,98219.98
2018-08-12T05:46:40.055Z,98220.38
2018-08-12T05:47:11.629Z,98219.58
2018-08-12T05:47:43.225Z,98220.80
2018-08-12T05:48:14.808Z,98218.23
2018-08-12T05:48:46.395Z,98223.34
2018-08-12T05:49:18.010Z,98221.62
2018-08-12T05:49:49.609Z,98224.19
2018-08-12T05:50:21.200Z,98219.45
2018-08-12T05:50:52.797Z,98222.87
2018-08-12T05:51:24.399Z,98219.52
2018-08-12T05:51:55.996Z,98220.73
2018-08-12T05:52:27.583Z,98230.11
2018-08-12T05:52:59.167Z,98227.13
2018-08-12T05:53:30.760Z,98222.00
2018-08-12T05:54:02.349Z,98220.72
2018-08-12T05:54:33.984Z,98222.42
2018-08-12T05:55:05.617Z,98222.85
2018-08-12T05:55:37.221Z,98221.56
2018-08-12T05:56:08.822Z,98221.09
2018-08-12T05:56:40.406Z,98218.52
2018-08-12T05:57:12.036Z,98220.59
2018-08-12T05:57:43.612Z,98218.89
2018-08-12T05:58:15.199Z,98219.29
2018-08-12T05:58:46.802Z,98215.84
2018-08-12T05:59:18.406Z,98217.11
2018-08-12T05:59:50.035Z,98214.55
2018-08-12T06:00:21.628Z,98214.12
2018-08-12T06:00:53.219Z,98205.58
2018-08-12T06:01:24.803Z,98209.48
2018-08-12T06:01:56.401Z,98206.92
2018-08-12T06:02:27.982Z,98211.98
2018-08-12T06:02:59.567Z,98215.82
2018-08-12T06:03:31.170Z,98209.84
2018-08-12T06:04:02.750Z,98211.11
2018-08-12T06:04:34.335Z,98211.93
2018-08-12T06:05:05.973Z,98213.62
2018-08-12T06:05:37.570Z,98210.22
2018-08-12T06:06:09.159Z,98213.62
2018-08-12T06:06:40.756Z,98213.61
2018-08-12T06:07:12.329Z,98211.47
2018-08-12T06:07:43.929Z,98209.73
2018-08-12T06:08:15.525Z,98211.00
2018-08-12T06:08:47.120Z,98209.73
2018-08-12T06:09:18.765Z,98212.28
2018-08-12T06:09:50.351Z,98212.69
2018-08-12T06:10:21.992Z,98211.83
2018-08-12T06:10:53.579Z,98210.09